LEVSLEZG

Guest
Details From LEVS - Cuatro Vientos
To LEZG - Zaragoza AB
Flight Number -
Tags generated
Created
Modified
Stats Distance 147 nm / 272 km
Max Altitude 17,400 ft / 5,304 m
Waypoints 3
Social Downloads 2
Likes 0
Share VATSIM

Download

Looking for another format? Having issues loading an existing format? Contact us
Advertisement - Login to hide

Notes

Basic altitude profile: - Ascent Rate: 2500ft/min - Ascent Speed: 250kts - Cruise Altitude: 35000ft - Cruise Speed: 420kts - Descent Rate: 1500ft/min - Descent Speed: 250kts Options: - Use NATs: yes - Use PACOTS: yes - Use low airways: yes - Use high airways: no

Route

LEVS PINAR LEZG

ID Type Via Altitude Latitude Longitude Leg Dist Tot Dist Heading (true) Name
O LEVS APT - 0 ft / 0 m 40.37133˚ -3.78464˚ - 0 nm - Cuatro Vientos
PINAR FIX - 17,400 ft / 5,304 m 40.98029˚ -2.59917˚ 65 nm 65 nm 56° / 56° -
O LEZG APT - 0 ft / 0 m 41.66703˚ -1.04356˚ 81 nm 146 nm 59° / 60° Zaragoza AB

Altitude Profile

Advertisement - Login to hide

LEVS

Details ICAO LEVS
Name Cuatro Vientos
Region Spain
Timezone Europe/Madrid (UTC+1.0)
Stats Elevation 2,267 ft / 691 m (AMSL)
Location 40.371330° -3.784644°
Runways 2
Magnetic Variation 0.748° W

METAR

LEVS 141700Z 23012KT 9999 BKN005 11/11 Q1017

Decode

TAF

Not found

Departure Runways

ID Width Length Bearing (true) Bearing (mag) Surface Threshold Offset Overrun Length
10 98 ft / 30 m 4,897 ft / 1,493 m 93.79° 94.54° Asphalt 0 ft / 0 m 197 ft / 60 m
10L 148 ft / 45 m 3,656 ft / 1,114 m 94.12° 94.87° Dirt 0 ft / 0 m 0 ft / 0 m
28 98 ft / 30 m 4,897 ft / 1,493 m 273.80° 274.55° Asphalt 0 ft / 0 m 197 ft / 60 m
28R 148 ft / 45 m 3,656 ft / 1,114 m 274.13° 274.88° Dirt 0 ft / 0 m 0 ft / 0 m

LEZG

Details ICAO LEZG (ZAZ)
Name Zaragoza AB
Region Spain
Timezone Europe/Madrid (UTC+1.0)
Stats Elevation 862 ft / 263 m (AMSL)
Location 41.667030° -1.043559°
Runways 2
Magnetic Variation 0.011° W

METAR

LEZG 141700Z 24002KT 9999 SCT040 SCT055 BKN085 13/08 Q1013

Decode

TAF

TAF TAF LEZG 141100Z 1412/1512 26007KT 9999 BKN020 TX15/1413Z TN03/1507Z BECMG 1413/1415 24015KT TEMPO 1415/1423 24018G30KT BECMG 1500/1502 29005KT PROB40 TEMPO 1502/1509 0500 BCFG VV002 BECMG 1506/1508 30012KT

Decode

Destination Runways

ID Width Length Bearing (true) Bearing (mag) Surface Threshold Offset Overrun Length
12L 148 ft / 45 m 9,934 ft / 3,028 m 120.12° 120.13° Asphalt 0 ft / 0 m 984 ft / 300 m
12R 148 ft / 45 m 12,181 ft / 3,713 m 120.10° 120.11° Asphalt 0 ft / 0 m 984 ft / 300 m
30L 148 ft / 45 m 12,181 ft / 3,713 m 300.12° 300.13° Asphalt 0 ft / 0 m 984 ft / 300 m
30R 148 ft / 45 m 9,934 ft / 3,028 m 300.14° 300.15° Asphalt 0 ft / 0 m 607 ft / 185 m

Approach Navaids

Runway Type Ident Frequency Range Bearing (true) Bearing (mag) Slope Elevation
30R Localiser IZZA 109.50 MHz 18 nm / 33 km 300.12° 300.13° - 862 ft / 263 m (AMSL)
30R Glidescope IZZA 109.50 MHz 10 nm / 19 km 300.13° 300.14° 2.50° 862 ft / 263 m (AMSL)